Smit Tondoon — VHIE — position and weather

sailwx.info

Track history (hours):
 
Tides and Currents Weather Stations Pressure Air Temp Water Temp Dewpoint Dewpoint Depression Visibility Wind Speed Wind Dir Waves Ship Positions

Smit Tondoon

Last reported at 2014-Aug-11 01:26 UTC. Time now 2014-Aug-31 02:38 UTC.
Position S 27°27' E 153°05'.
Warning: this ship's position is 20 days out of date.

Length 30 m; draft 6 m.

Type: Tug. MMSI: 503648000.

Date/timePositionNaut miles runAvg speedWind from/ knotsBaromVisibWave heightAir tempDewpointWater temp
2014-Aug-11 01:26S 27°27' E 153°05'0 0.0
2014-Aug-11 00:32S 27°27' E 153°05'0 0.0
2014-Aug-10 23:12S 27°27' E 153°05'0 0.1
2014-Aug-10 22:33S 27°27' E 153°05'6 6.3
2014-Aug-10 21:34S 27°23' E 153°10'8 8.2
2014-Aug-10 20:33S 27°15' E 153°15'8 8.5
2014-Aug-10 19:34S 27°09' E 153°21'8 7.9
2014-Aug-10 18:34S 27°03' E 153°16'7 7.1
2014-Aug-10 17:33S 26°56' E 153°12'7 6.7
2014-Aug-10 16:33S 26°50' E 153°09'6 6.2
2014-Aug-10 15:33S 26°45' E 153°12'8 7.6
2014-Aug-10 14:33S 26°37' E 153°13'8 7.9
2014-Aug-10 13:33S 26°29' E 153°13'8 7.9
2014-Aug-10 12:31S 26°21' E 153°13'9 8.2
2014-Aug-10 11:22S 26°12' E 153°14'7 8.5
2014-Aug-10 10:33S 26°05' E 153°15'  
Track history (hours):
 
Tides and Currents Weather Stations Pressure Air Temp Water Temp Dewpoint Dewpoint Depression Visibility Wind Speed Wind Dir Waves Ship Positions

Smit Tondoon

Last reported at 2014-Aug-11 01:26 UTC. Time now 2014-Aug-31 02:38 UTC.
Position S 27°27' E 153°05'.
Warning: this ship's position is 20 days out of date.

Length 30 m; draft 6 m.

Type: Tug. MMSI: 503648000.

Date/timePositionNaut miles runAvg speedWind from/ knotsBaromVisibWave heightAir tempDewpointWater temp
2014-Aug-11 01:26S 27°27' E 153°05'0 0.0
2014-Aug-11 00:32S 27°27' E 153°05'0 0.0
2014-Aug-10 23:12S 27°27' E 153°05'0 0.1
2014-Aug-10 22:33S 27°27' E 153°05'6 6.3
2014-Aug-10 21:34S 27°23' E 153°10'8 8.2
2014-Aug-10 20:33S 27°15' E 153°15'8 8.5
2014-Aug-10 19:34S 27°09' E 153°21'8 7.9
2014-Aug-10 18:34S 27°03' E 153°16'7 7.1
2014-Aug-10 17:33S 26°56' E 153°12'7 6.7
2014-Aug-10 16:33S 26°50' E 153°09'6 6.2
2014-Aug-10 15:33S 26°45' E 153°12'8 7.6
2014-Aug-10 14:33S 26°37' E 153°13'8 7.9
2014-Aug-10 13:33S 26°29' E 153°13'8 7.9
2014-Aug-10 12:31S 26°21' E 153°13'9 8.2
2014-Aug-10 11:22S 26°12' E 153°14'7 8.5
2014-Aug-10 10:33S 26°05' E 153°15'  

Dump ship's entire track history